createdAt,value
2023-02-23T00:02:34.000Z,35.7
2023-02-23T00:06:07.000Z,37.6
2023-02-23T00:09:40.000Z,36.8
2023-02-23T00:13:12.000Z,36.4
2023-02-23T00:16:45.000Z,41.1
2023-02-23T00:20:18.000Z,40.5
2023-02-23T00:23:50.000Z,48.1
2023-02-23T00:27:23.000Z,48.1
2023-02-23T00:30:56.000Z,42
2023-02-23T00:33:46.000Z,40.7
2023-02-23T00:37:19.000Z,45.2
2023-02-23T00:40:52.000Z,45.7
2023-02-23T00:44:24.000Z,43
2023-02-23T00:47:57.000Z,41.2
2023-02-23T00:51:30.000Z,42
2023-02-23T00:55:02.000Z,37.4
2023-02-23T00:58:35.000Z,48.1
2023-02-23T01:02:08.000Z,46.3
2023-02-23T01:05:40.000Z,44.5
2023-02-23T01:09:13.000Z,45.9
2023-02-23T01:12:04.000Z,43.2
2023-02-23T01:15:37.000Z,46.4
2023-02-23T01:19:10.000Z,39.4
2023-02-23T01:22:42.000Z,46.6
2023-02-23T01:26:15.000Z,39.1
2023-02-23T01:29:48.000Z,43.5
2023-02-23T01:33:21.000Z,46.2
2023-02-23T01:36:54.000Z,37.7
2023-02-23T01:40:26.000Z,51.9
2023-02-23T01:43:59.000Z,49.2
2023-02-23T01:47:32.000Z,52.6
2023-02-23T01:50:23.000Z,51.5
2023-02-23T01:53:55.000Z,50.5
2023-02-23T01:57:28.000Z,51.1
2023-02-23T02:01:01.000Z,45.8
2023-02-23T02:04:33.000Z,46.9
2023-02-23T02:08:06.000Z,48.3
2023-02-23T02:11:38.000Z,53.8
2023-02-23T02:15:11.000Z,50.3
2023-02-23T02:18:44.000Z,45.5
2023-02-23T02:22:17.000Z,41.7
2023-02-23T02:25:49.000Z,52
2023-02-23T02:28:40.000Z,50.1
2023-02-23T02:32:13.000Z,38.3
2023-02-23T02:35:46.000Z,40.5
2023-02-23T02:39:18.000Z,43.3
2023-02-23T02:42:51.000Z,46.9
2023-02-23T02:46:24.000Z,51.5
2023-02-23T02:49:56.000Z,44.7
2023-02-23T02:53:29.000Z,53.9
2023-02-23T02:57:02.000Z,44.3
2023-02-23T03:00:34.000Z,49.3
2023-02-23T03:04:07.000Z,51.6
2023-02-23T03:06:59.000Z,49.5
2023-02-23T03:10:31.000Z,50
2023-02-23T03:14:04.000Z,46.9
2023-02-23T03:17:36.000Z,50.1
2023-02-23T03:21:09.000Z,50.8
2023-02-23T03:24:42.000Z,48
2023-02-23T03:28:15.000Z,53.3
2023-02-23T03:31:48.000Z,47.7
2023-02-23T03:35:20.000Z,44.7
2023-02-23T03:38:53.000Z,45.8
2023-02-23T03:42:26.000Z,43.7
2023-02-23T03:45:17.000Z,50.3
2023-02-23T03:48:50.000Z,49
2023-02-23T03:52:23.000Z,48
2023-02-23T03:55:55.000Z,42.6
2023-02-23T03:59:28.000Z,46.7
2023-02-23T04:03:00.000Z,46.1
2023-02-23T04:06:33.000Z,43.3
2023-02-23T04:10:06.000Z,43.7
2023-02-23T04:13:38.000Z,42.5
2023-02-23T04:17:11.000Z,44.5
2023-02-23T04:20:44.000Z,42.3
2023-02-23T04:23:35.000Z,47.5
2023-02-23T04:27:08.000Z,50.8
2023-02-23T04:30:40.000Z,51
2023-02-23T04:34:13.000Z,47.3
2023-02-23T04:37:46.000Z,45.9
2023-02-23T04:41:19.000Z,42
2023-02-23T04:44:51.000Z,46.1
2023-02-23T04:48:24.000Z,45.4
2023-02-23T04:51:57.000Z,41.4
2023-02-23T04:55:29.000Z,39.5
2023-02-23T04:59:02.000Z,40.8
2023-02-23T05:01:53.000Z,38.9
2023-02-23T05:05:26.000Z,38.3
2023-02-23T05:08:58.000Z,55.3
2023-02-23T05:12:31.000Z,41.7
2023-02-23T05:16:04.000Z,44.4
2023-02-23T05:19:36.000Z,50.5
2023-02-23T05:23:09.000Z,49.5
2023-02-23T05:26:42.000Z,49.5
2023-02-23T05:30:14.000Z,41.4
2023-02-23T05:33:47.000Z,44.2
2023-02-23T05:37:20.000Z,49.4
2023-02-23T05:40:11.000Z,66.5
2023-02-23T05:43:44.000Z,76.8
2023-02-23T05:47:17.000Z,68.5
2023-02-23T05:50:49.000Z,64.8
2023-02-23T05:54:22.000Z,50.8
2023-02-23T05:57:55.000Z,52.3
2023-02-23T06:01:27.000Z,51
2023-02-23T06:05:00.000Z,48.5
2023-02-23T06:08:33.000Z,50.3
2023-02-23T06:12:05.000Z,46.5
2023-02-23T06:15:38.000Z,49.7
2023-02-23T06:18:29.000Z,51.6
2023-02-23T06:22:02.000Z,47
2023-02-23T06:25:35.000Z,44.9
2023-02-23T06:29:07.000Z,44.2
2023-02-23T06:32:40.000Z,52.5
2023-02-23T06:36:13.000Z,46.5
2023-02-23T06:39:45.000Z,52.9
2023-02-23T06:43:18.000Z,47.2
2023-02-23T06:46:51.000Z,46.2
2023-02-23T06:50:24.000Z,43.9
2023-02-23T06:53:56.000Z,51.5
2023-02-23T06:56:47.000Z,44.3
2023-02-23T07:00:20.000Z,41.3
2023-02-23T07:03:53.000Z,46.3
2023-02-23T07:07:25.000Z,46.3
2023-02-23T07:10:58.000Z,39.4
2023-02-23T07:14:31.000Z,49.6
2023-02-23T07:18:04.000Z,49
2023-02-23T07:21:36.000Z,42.3
2023-02-23T07:25:09.000Z,41
2023-02-23T07:28:41.000Z,51.6
2023-02-23T07:32:14.000Z,49.5
2023-02-23T07:35:06.000Z,48.9
2023-02-23T07:38:38.000Z,40.1
2023-02-23T07:42:11.000Z,40.3
2023-02-23T07:45:44.000Z,47.4
2023-02-23T07:49:16.000Z,49.7
2023-02-23T07:52:49.000Z,63.1
2023-02-23T07:56:22.000Z,54.3
2023-02-23T07:59:54.000Z,56.4
2023-02-23T08:03:27.000Z,52.8
2023-02-23T08:07:00.000Z,47.5
2023-02-23T08:10:32.000Z,48.6
2023-02-23T08:13:24.000Z,50
2023-02-23T08:16:56.000Z,48.9
2023-02-23T08:20:29.000Z,58.4
2023-02-23T08:24:02.000Z,50.1
2023-02-23T08:27:34.000Z,59.5
2023-02-23T08:31:07.000Z,57
2023-02-23T08:34:40.000Z,53.6
2023-02-23T08:38:12.000Z,73
2023-02-23T08:41:45.000Z,60.8
2023-02-23T08:45:18.000Z,77.4
2023-02-23T08:48:50.000Z,76.7
2023-02-23T08:51:41.000Z,79.9
2023-02-23T08:55:14.000Z,72.7
2023-02-23T08:58:47.000Z,73.8
2023-02-23T09:02:19.000Z,80.4
2023-02-23T09:05:52.000Z,89.3
2023-02-23T09:09:25.000Z,80.9
2023-02-23T09:12:57.000Z,82.7
2023-02-23T09:16:30.000Z,78.2
2023-02-23T09:20:02.000Z,75
2023-02-23T09:23:35.000Z,80
2023-02-23T09:27:08.000Z,76.8
2023-02-23T09:29:59.000Z,81.9
2023-02-23T09:33:32.000Z,73.7
2023-02-23T09:37:04.000Z,73.4
2023-02-23T09:40:37.000Z,73.9
2023-02-23T09:44:09.000Z,70.9
2023-02-23T09:47:42.000Z,73.2
2023-02-23T09:51:15.000Z,71
2023-02-23T09:54:47.000Z,73.7
2023-02-23T09:58:20.000Z,73.2
2023-02-23T10:01:53.000Z,75.1
2023-02-23T10:05:26.000Z,75.1
2023-02-23T10:08:17.000Z,69.3
2023-02-23T10:11:49.000Z,74
2023-02-23T10:15:22.000Z,69.1
2023-02-23T10:18:54.000Z,70.2
2023-02-23T10:22:27.000Z,68.7
2023-02-23T10:26:00.000Z,72.4
2023-02-23T10:29:33.000Z,73.6
2023-02-23T10:33:06.000Z,66.9
2023-02-23T10:36:38.000Z,74.2
2023-02-23T10:40:11.000Z,68
2023-02-23T10:43:44.000Z,65.7
2023-02-23T10:46:35.000Z,66.7
2023-02-23T10:50:08.000Z,69.5
2023-02-23T10:53:40.000Z,71.5
2023-02-23T10:57:13.000Z,77.2
2023-02-23T11:00:46.000Z,67.7
2023-02-23T11:04:19.000Z,74.5
2023-02-23T11:07:51.000Z,69.6
2023-02-23T11:11:44.000Z,73.1
2023-02-23T11:15:16.000Z,72.2
2023-02-23T11:19:04.000Z,72.9
2023-02-23T11:22:37.000Z,65.2
2023-02-23T11:25:28.000Z,65.7
2023-02-23T11:29:01.000Z,76.3
2023-02-23T11:32:33.000Z,72.5
2023-02-23T11:36:06.000Z,63.4
2023-02-23T11:39:39.000Z,65
2023-02-23T11:43:11.000Z,60.3
2023-02-23T11:46:44.000Z,61.3
2023-02-23T11:50:17.000Z,72.1
2023-02-23T11:53:49.000Z,66.8
2023-02-23T11:57:22.000Z,62.8
2023-02-23T12:00:55.000Z,61.4
2023-02-23T12:03:46.000Z,59.8
2023-02-23T12:07:19.000Z,53.2
2023-02-23T12:10:51.000Z,49.3
2023-02-23T12:14:24.000Z,57.4
2023-02-23T12:17:57.000Z,57.6
2023-02-23T12:21:30.000Z,62.5
2023-02-23T12:25:02.000Z,53
2023-02-23T12:28:35.000Z,57.2
2023-02-23T12:32:08.000Z,46.9
2023-02-23T12:35:41.000Z,33.6
2023-02-23T12:39:13.000Z,18.3
2023-02-23T12:42:04.000Z,22.1
2023-02-23T12:45:37.000Z,9.2
2023-02-23T12:49:10.000Z,10.6
2023-02-23T12:52:42.000Z,11.3
2023-02-23T12:56:15.000Z,19.3
2023-02-23T12:59:48.000Z,12.9
2023-02-23T13:03:21.000Z,15
2023-02-23T13:06:54.000Z,16.4
2023-02-23T13:10:30.000Z,19.2
2023-02-23T13:14:03.000Z,28.2
2023-02-23T13:17:35.000Z,16.9
2023-02-23T13:20:27.000Z,17.4
2023-02-23T13:23:59.000Z,20.2
2023-02-23T13:27:32.000Z,15.8
2023-02-23T13:31:04.000Z,15.6
2023-02-23T13:34:37.000Z,16.4
2023-02-23T13:38:10.000Z,16.4
2023-02-23T13:41:43.000Z,16.6
2023-02-23T13:45:16.000Z,16.4
2023-02-23T13:48:48.000Z,17.5
2023-02-23T13:52:24.000Z,20.2
2023-02-23T13:55:57.000Z,18.2
2023-02-23T13:58:48.000Z,17
2023-02-23T14:02:21.000Z,15
2023-02-23T14:05:54.000Z,17.7
2023-02-23T14:09:26.000Z,17.8
2023-02-23T14:12:59.000Z,19.4
2023-02-23T14:16:32.000Z,18.6
2023-02-23T14:20:04.000Z,17.9
2023-02-23T14:23:46.000Z,17.9
2023-02-23T14:27:18.000Z,16.7
2023-02-23T14:31:06.000Z,18.1
2023-02-23T14:34:39.000Z,18.3
2023-02-23T14:37:30.000Z,18.2
2023-02-23T14:41:03.000Z,22.6
2023-02-23T14:44:36.000Z,15.7
2023-02-23T14:48:08.000Z,23
2023-02-23T14:51:41.000Z,21.7
2023-02-23T14:55:13.000Z,20.6
2023-02-23T14:58:46.000Z,20.1
2023-02-23T15:02:19.000Z,20.8
2023-02-23T15:05:52.000Z,20.2
2023-02-23T15:09:24.000Z,19.6
2023-02-23T15:12:57.000Z,23.8
2023-02-23T15:15:48.000Z,21.9
2023-02-23T15:19:21.000Z,19.3
2023-02-23T15:22:54.000Z,20.2
2023-02-23T15:26:27.000Z,23.7
2023-02-23T15:29:59.000Z,23.1
2023-02-23T15:33:32.000Z,24.3
2023-02-23T15:37:05.000Z,20.9
2023-02-23T15:40:43.000Z,25.4
2023-02-23T15:44:15.000Z,26
2023-02-23T15:47:49.000Z,22.2
2023-02-23T15:51:22.000Z,24.2
2023-02-23T15:54:14.000Z,25.7
2023-02-23T15:57:46.000Z,23.6
2023-02-23T16:01:19.000Z,23.8
2023-02-23T16:04:52.000Z,21.8
2023-02-23T16:08:24.000Z,23.6
2023-02-23T16:11:57.000Z,22.3
2023-02-23T16:15:30.000Z,25.4
2023-02-23T16:19:10.000Z,24
2023-02-23T16:22:43.000Z,25.2
2023-02-23T16:26:16.000Z,24
2023-02-23T16:29:48.000Z,21
2023-02-23T16:32:40.000Z,23.9
2023-02-23T16:36:13.000Z,22.3
2023-02-23T16:39:46.000Z,24.9
2023-02-23T16:43:19.000Z,26.1
2023-02-23T16:46:52.000Z,23.4
2023-02-23T16:50:24.000Z,26.2
2023-02-23T16:53:57.000Z,28
2023-02-23T16:57:30.000Z,27.7
2023-02-23T17:01:02.000Z,27.9
2023-02-23T17:04:35.000Z,29.4
2023-02-23T17:08:08.000Z,30.8
2023-02-23T17:10:59.000Z,28.1
2023-02-23T17:14:32.000Z,27.9
2023-02-23T17:18:05.000Z,28.7
2023-02-23T17:21:37.000Z,34.4
2023-02-23T17:25:10.000Z,31.4
2023-02-23T17:28:42.000Z,33.3
2023-02-23T17:32:15.000Z,33.4
2023-02-23T17:35:48.000Z,34.6
2023-02-23T17:39:21.000Z,39.1
2023-02-23T17:42:53.000Z,34.6
2023-02-23T17:46:26.000Z,36.5
2023-02-23T17:49:17.000Z,35
2023-02-23T17:52:50.000Z,36.2
2023-02-23T17:56:22.000Z,34.1
2023-02-23T17:59:55.000Z,33.1
2023-02-23T18:03:28.000Z,36
2023-02-23T18:07:01.000Z,30.9
2023-02-23T18:10:34.000Z,31.9
2023-02-23T18:14:06.000Z,31.6
2023-02-23T18:17:39.000Z,37.9
2023-02-23T18:21:12.000Z,51.4
2023-02-23T18:24:44.000Z,34.3
2023-02-23T18:27:36.000Z,32.4
2023-02-23T18:31:08.000Z,32.4
2023-02-23T18:34:41.000Z,32
2023-02-23T18:38:14.000Z,33.2
2023-02-23T18:41:47.000Z,32.8
2023-02-23T18:45:19.000Z,30.1
2023-02-23T18:48:52.000Z,33.6
2023-02-23T18:52:25.000Z,29.2
2023-02-23T18:55:57.000Z,36.7
2023-02-23T18:59:30.000Z,33.2
2023-02-23T19:03:03.000Z,36.5
2023-02-23T19:05:54.000Z,36.5
2023-02-23T19:09:27.000Z,33.7
2023-02-23T19:12:59.000Z,35.5
2023-02-23T19:16:48.000Z,34.6
2023-02-23T19:20:21.000Z,38.7
2023-02-23T19:23:53.000Z,40.4
2023-02-23T19:27:26.000Z,40.2
2023-02-23T19:30:59.000Z,39.3
2023-02-23T19:34:32.000Z,34.5
2023-02-23T19:38:04.000Z,36.2
2023-02-23T19:41:37.000Z,34.5
2023-02-23T19:44:28.000Z,35.7
2023-02-23T19:48:01.000Z,34.7
2023-02-23T19:51:34.000Z,46.8
2023-02-23T19:55:06.000Z,43.1
2023-02-23T19:58:39.000Z,43.8
2023-02-23T20:02:12.000Z,46
2023-02-23T20:05:45.000Z,44.9
2023-02-23T20:09:17.000Z,45.3
2023-02-23T20:12:50.000Z,48.5
2023-02-23T20:16:22.000Z,54.1
2023-02-23T20:19:55.000Z,45.4
2023-02-23T20:22:47.000Z,46.4
2023-02-23T20:26:19.000Z,49.5
2023-02-23T20:29:52.000Z,52
2023-02-23T20:33:25.000Z,49.1
2023-02-23T20:36:58.000Z,49.5
2023-02-23T20:40:30.000Z,50.1
2023-02-23T20:44:03.000Z,47.9
2023-02-23T20:47:36.000Z,53.4
2023-02-23T20:51:08.000Z,53.9
2023-02-23T20:54:41.000Z,54.7
2023-02-23T20:58:13.000Z,52.4
2023-02-23T21:01:04.000Z,53.5
2023-02-23T21:04:37.000Z,52.6
2023-02-23T21:08:09.000Z,50.2
2023-02-23T21:11:42.000Z,49.8
2023-02-23T21:15:15.000Z,53.9
2023-02-23T21:18:47.000Z,54.8
2023-02-23T21:22:20.000Z,53
2023-02-23T21:25:53.000Z,52.3
2023-02-23T21:29:25.000Z,48.3
2023-02-23T21:32:58.000Z,51.6
2023-02-23T21:36:31.000Z,46.3
2023-02-23T21:39:22.000Z,50.5
2023-02-23T21:42:55.000Z,41.2
2023-02-23T21:46:28.000Z,39.8
2023-02-23T21:50:00.000Z,40.8
2023-02-23T21:53:33.000Z,41.2
2023-02-23T21:57:18.000Z,40.1
2023-02-23T22:00:51.000Z,39.3
2023-02-23T22:04:23.000Z,39.8
2023-02-23T22:07:56.000Z,39.6
2023-02-23T22:11:29.000Z,36.4
2023-02-23T22:15:01.000Z,33
2023-02-23T22:17:53.000Z,34.6
2023-02-23T22:21:25.000Z,35.1
2023-02-23T22:24:58.000Z,33.1
2023-02-23T22:28:31.000Z,35.8
2023-02-23T22:32:03.000Z,32.8
2023-02-23T22:35:37.000Z,26.9
2023-02-23T22:39:09.000Z,25.8
2023-02-23T22:42:42.000Z,24.3
2023-02-23T22:46:15.000Z,22
2023-02-23T22:49:48.000Z,22.5
2023-02-23T22:53:21.000Z,24.9
2023-02-23T22:56:12.000Z,26.1
2023-02-23T22:59:45.000Z,22.8
2023-02-23T23:03:18.000Z,25.3
2023-02-23T23:06:50.000Z,24.7
2023-02-23T23:10:23.000Z,25.6
2023-02-23T23:13:56.000Z,31.6
2023-02-23T23:17:28.000Z,28.8
2023-02-23T23:21:01.000Z,33.1
2023-02-23T23:24:34.000Z,30.8
2023-02-23T23:28:06.000Z,34.3
2023-02-23T23:31:39.000Z,32.6
2023-02-23T23:34:30.000Z,34.5
2023-02-23T23:38:03.000Z,32.3
2023-02-23T23:41:36.000Z,33.2
2023-02-23T23:45:08.000Z,28.2
2023-02-23T23:48:41.000Z,29.4
2023-02-23T23:52:14.000Z,30.7
2023-02-23T23:55:46.000Z,29.7
2023-02-23T23:59:19.000Z,29.7
